Time;durP1;ratioP1;P1;durP2;ratioP2;P2;SDS_P1;SDS_P2;PMS_P1;PMS_P2;Temp;Humidity;BMP_temperature;BMP_pressure;BME280_temperature;BME280_humidity;BME280_pressure;Samples;Min_cycle;Max_cycle;Signal;HPM_P1;HPM_P2
2021/12/30 00:00:09;;;;;;;41.60;18.50;;;6.60;99.90;;;;;;5077389;28;20467;-70
2021/12/30 00:02:36;;;;;;;38.30;19.50;;;6.60;99.90;;;;;;5077791;28;20462;-70
2021/12/30 00:05:06;;;;;;;38.90;19.00;;;6.60;99.90;;;;;;5077748;28;20818;-70
2021/12/30 00:07:32;;;;;;;40.43;19.17;;;6.60;99.90;;;;;;5076807;28;20494;-70
2021/12/30 00:10:00;;;;;;;37.90;18.43;;;6.60;99.90;;;;;;5077150;28;20538;-70
2021/12/30 00:12:26;;;;;;;35.97;17.60;;;6.60;99.90;;;;;;5076888;28;20469;-70
2021/12/30 00:14:53;;;;;;;30.10;17.30;;;6.70;99.90;;;;;;5076891;28;20456;-70
2021/12/30 00:17:20;;;;;;;29.47;16.83;;;6.70;99.90;;;;;;5076336;28;20465;-71
2021/12/30 00:19:46;;;;;;;26.37;16.80;;;6.60;99.90;;;;;;5076690;28;20454;-69
2021/12/30 00:22:14;;;;;;;30.27;16.33;;;6.60;99.90;;;;;;5076855;28;20477;-70
2021/12/30 00:24:41;;;;;;;29.50;15.80;;;6.50;99.90;;;;;;5076562;28;20985;-70
2021/12/30 00:27:08;;;;;;;28.40;15.70;;;6.50;99.90;;;;;;5076666;28;20482;-70
2021/12/30 00:29:36;;;;;;;31.03;15.57;;;6.50;99.90;;;;;;5077296;28;20516;-70
2021/12/30 00:32:03;;;;;;;26.80;16.77;;;6.40;99.90;;;;;;5075675;28;20464;-70
2021/12/30 00:34:30;;;;;;;30.37;16.50;;;6.40;99.90;;;;;;5076415;28;20454;-70
2021/12/30 00:36:57;;;;;;;26.90;16.27;;;6.40;99.90;;;;;;5076847;28;20458;-71
2021/12/30 00:39:25;;;;;;;34.87;16.80;;;6.40;99.90;;;;;;5076714;28;20454;-71
2021/12/30 00:41:52;;;;;;;27.83;15.63;;;6.40;99.90;;;;;;5076384;28;20488;-70
2021/12/30 00:44:19;;;;;;;29.63;16.10;;;6.50;99.90;;;;;;5075362;28;20478;-70
2021/12/30 00:46:45;;;;;;;31.73;16.63;;;6.50;99.90;;;;;;5076261;28;20766;-71
2021/12/30 00:49:13;;;;;;;29.07;16.10;;;6.50;99.90;;;;;;5075977;28;20488;-70
2021/12/30 00:51:39;;;;;;;31.20;17.40;;;6.60;99.90;;;;;;5076310;28;20450;-71
2021/12/30 00:54:06;;;;;;;29.53;18.03;;;6.60;99.90;;;;;;5076118;28;20450;-71
2021/12/30 00:56:36;;;;;;;26.17;16.23;;;6.60;99.90;;;;;;5076130;28;20458;-71
2021/12/30 00:59:03;;;;;;;29.23;17.87;;;6.60;99.90;;;;;;5077203;28;20489;-70
2021/12/30 01:01:30;;;;;;;27.17;15.60;;;6.60;99.90;;;;;;5077021;28;20484;-71
2021/12/30 01:03:56;;;;;;;28.07;15.80;;;6.60;99.90;;;;;;5076302;28;20473;-71
2021/12/30 01:06:28;;;;;;;29.63;17.60;;;6.60;99.90;;;;;;5078960;28;20454;-70
2021/12/30 01:08:55;;;;;;;31.03;16.77;;;6.60;99.90;;;;;;5075941;28;20503;-70
2021/12/30 01:11:23;;;;;;;24.67;14.70;;;6.60;99.90;;;;;;5075745;28;20457;-70
2021/12/30 01:13:59;;;;;;;25.60;15.90;;;6.60;99.90;;;;;;5076068;28;20469;-71
2021/12/30 01:16:29;;;;;;;30.40;16.83;;;6.60;99.90;;;;;;5075697;28;20450;-70
2021/12/30 01:19:01;;;;;;;25.30;14.73;;;6.60;99.90;;;;;;5075084;28;20454;-70
2021/12/30 01:21:31;;;;;;;25.77;14.80;;;6.60;99.90;;;;;;5075630;28;20808;-70
2021/12/30 01:23:58;;;;;;;24.97;15.70;;;6.60;99.90;;;;;;5075030;28;20463;-70
2021/12/30 01:26:25;;;;;;;23.90;15.33;;;6.60;99.90;;;;;;5075114;28;20478;-70
2021/12/30 01:28:54;;;;;;;28.30;16.57;;;6.60;99.90;;;;;;5075355;28;20465;-70
2021/12/30 01:31:21;;;;;;;26.63;15.23;;;6.60;99.90;;;;;;5075209;28;20454;-70
2021/12/30 01:33:48;;;;;;;27.73;16.17;;;6.60;99.90;;;;;;5075500;28;20451;-70
2021/12/30 01:36:16;;;;;;;23.27;15.00;;;6.60;99.90;;;;;;5075340;28;20733;-70
2021/12/30 01:38:46;;;;;;;26.03;16.53;;;6.60;99.90;;;;;;5075631;28;20786;-70
2021/12/30 01:41:15;;;;;;;26.57;15.43;;;6.60;99.90;;;;;;5075358;28;20458;-70
2021/12/30 01:43:45;;;;;;;24.70;16.10;;;6.60;99.90;;;;;;5075070;28;20478;-70
2021/12/30 01:46:13;;;;;;;23.37;14.73;;;6.60;99.90;;;;;;5075028;28;20529;-70
2021/12/30 01:48:40;;;;;;;22.27;15.07;;;6.60;99.90;;;;;;5075062;28;20454;-70
2021/12/30 01:51:08;;;;;;;25.00;14.60;;;6.70;99.90;;;;;;5075208;28;20760;-70
2021/12/30 01:53:35;;;;;;;22.20;15.13;;;6.60;99.90;;;;;;5075337;28;20450;-70
2021/12/30 01:56:01;;;;;;;24.30;15.60;;;6.60;99.90;;;;;;5074790;28;20761;-70
2021/12/30 01:58:28;;;;;;;22.40;14.77;;;6.60;99.90;;;;;;5074770;28;20458;-70
2021/12/30 02:00:55;;;;;;;22.27;14.70;;;6.60;99.90;;;;;;5074941;28;20454;-70
2021/12/30 02:03:25;;;;;;;31.87;16.30;;;6.60;99.90;;;;;;5074858;28;20462;-70
2021/12/30 02:05:54;;;;;;;22.03;14.83;;;6.60;99.90;;;;;;5074797;28;20458;-70
2021/12/30 02:08:21;;;;;;;22.70;15.37;;;6.70;99.90;;;;;;5075086;28;20476;-70
2021/12/30 02:10:50;;;;;;;21.50;14.03;;;6.70;99.90;;;;;;5074856;28;20457;-70
2021/12/30 02:13:18;;;;;;;23.90;15.63;;;6.70;99.90;;;;;;5074814;28;20462;-70
2021/12/30 02:15:45;;;;;;;26.23;14.73;;;6.70;99.90;;;;;;5074797;28;20469;-70
2021/12/30 02:18:12;;;;;;;22.30;15.10;;;6.70;99.90;;;;;;5074741;28;20469;-70
2021/12/30 02:20:49;;;;;;;21.40;15.50;;;6.70;99.90;;;;;;5074260;28;20515;-70
2021/12/30 02:23:20;;;;;;;24.10;15.63;;;6.70;99.90;;;;;;5074797;28;20453;-70
2021/12/30 02:25:47;;;;;;;25.87;15.87;;;6.80;99.90;;;;;;5074431;28;20770;-70
2021/12/30 02:28:16;;;;;;;23.77;14.97;;;6.80;99.90;;;;;;5074956;28;20443;-70
2021/12/30 02:30:44;;;;;;;23.60;15.20;;;6.80;99.90;;;;;;5074538;28;20492;-70
2021/12/30 02:33:11;;;;;;;22.67;15.40;;;6.90;99.90;;;;;;5074560;28;20454;-70
2021/12/30 02:35:38;;;;;;;24.20;14.80;;;6.90;99.90;;;;;;5074652;28;20459;-70
2021/12/30 02:38:07;;;;;;;24.77;16.60;;;6.90;99.90;;;;;;5074583;28;20458;-70
2021/12/30 02:40:38;;;;;;;20.53;15.40;;;6.90;99.90;;;;;;5074591;28;20458;-70
2021/12/30 02:43:06;;;;;;;27.43;16.00;;;6.90;99.90;;;;;;5074235;28;20458;-70
2021/12/30 02:45:33;;;;;;;27.73;16.30;;;6.90;99.90;;;;;;5074373;28;20482;-70
2021/12/30 02:48:00;;;;;;;25.70;16.90;;;7.00;99.90;;;;;;5074445;28;20458;-70
2021/12/30 02:50:26;;;;;;;23.90;15.87;;;7.00;99.90;;;;;;5074097;28;20457;-70
2021/12/30 02:52:53;;;;;;;22.30;14.97;;;7.00;99.90;;;;;;5074296;28;20543;-70
2021/12/30 02:55:21;;;;;;;25.07;16.30;;;7.00;99.90;;;;;;5074490;28;20520;-70
2021/12/30 02:57:48;;;;;;;27.13;15.43;;;7.10;99.90;;;;;;5074295;28;20458;-70
2021/12/30 03:00:18;;;;;;;22.73;15.07;;;7.10;99.90;;;;;;5074863;28;20457;-71
2021/12/30 03:02:44;;;;;;;23.23;15.90;;;7.10;99.90;;;;;;5074157;28;20799;-70
2021/12/30 03:05:19;;;;;;;24.97;15.93;;;7.10;99.90;;;;;;5074894;28;20513;-70
2021/12/30 03:07:46;;;;;;;24.10;15.67;;;7.10;99.90;;;;;;5074941;28;20452;-70
2021/12/30 03:10:18;;;;;;;23.37;15.47;;;7.10;99.90;;;;;;5077977;28;20454;-70
2021/12/30 03:12:52;;;;;;;22.40;16.80;;;7.20;99.90;;;;;;5077912;28;20458;-70
2021/12/30 03:15:18;;;;;;;23.13;15.63;;;7.20;99.90;;;;;;5077976;28;20557;-70
2021/12/30 03:17:45;;;;;;;24.40;17.00;;;7.20;99.90;;;;;;5077810;28;20457;-70
2021/12/30 03:20:12;;;;;;;21.60;14.67;;;7.20;99.90;;;;;;5077520;28;20976;-70
2021/12/30 03:22:40;;;;;;;25.40;15.27;;;7.20;99.90;;;;;;5078004;28;20498;-70
2021/12/30 03:25:11;;;;;;;22.00;14.50;;;7.20;99.90;;;;;;5077994;28;20810;-70
2021/12/30 03:27:38;;;;;;;19.80;13.40;;;7.20;99.90;;;;;;5078737;28;20481;-70
2021/12/30 03:30:09;;;;;;;26.03;15.00;;;7.20;99.90;;;;;;5079732;28;20762;-70
2021/12/30 03:32:38;;;;;;;23.90;15.47;;;7.20;99.90;;;;;;5082708;28;20894;-69
2021/12/30 03:35:06;;;;;;;19.67;13.50;;;7.30;99.90;;;;;;5089477;28;20477;-70
2021/12/30 03:37:32;;;;;;;20.80;13.50;;;7.30;99.90;;;;;;5087776;28;20452;-71
2021/12/30 03:40:00;;;;;;;20.00;14.33;;;7.40;99.90;;;;;;5081742;28;20457;-71
2021/12/30 03:42:26;;;;;;;18.53;13.70;;;7.50;99.90;;;;;;5077544;28;20458;-71
2021/12/30 03:44:56;;;;;;;21.67;12.73;;;7.50;99.90;;;;;;5076887;28;20531;-70
2021/12/30 03:47:25;;;;;;;19.97;13.87;;;7.50;99.90;;;;;;5077241;28;20453;-70
2021/12/30 03:49:52;;;;;;;18.53;11.80;;;7.50;99.90;;;;;;5077307;28;20469;-71
2021/12/30 03:52:24;;;;;;;20.90;12.60;;;7.60;99.90;;;;;;5077031;28;20757;-69
2021/12/30 03:54:51;;;;;;;16.57;12.20;;;7.60;99.90;;;;;;5077034;28;20445;-70
2021/12/30 03:57:18;;;;;;;20.37;12.87;;;7.60;99.90;;;;;;5077187;28;20907;-70
2021/12/30 03:59:47;;;;;;;14.40;10.27;;;7.70;99.90;;;;;;5076749;28;20914;-70
2021/12/30 04:02:14;;;;;;;16.27;12.17;;;7.70;99.90;;;;;;5076772;28;20458;-70
2021/12/30 04:04:43;;;;;;;15.40;12.10;;;7.80;99.90;;;;;;5076824;28;20966;-70
2021/12/30 04:07:10;;;;;;;15.57;11.90;;;7.80;99.90;;;;;;5076688;28;20462;-70
2021/12/30 04:09:37;;;;;;;17.73;11.60;;;7.80;99.90;;;;;;5076543;28;20459;-71
2021/12/30 04:12:04;;;;;;;17.60;11.37;;;7.80;99.90;;;;;;5076639;28;20549;-70
2021/12/30 04:14:34;;;;;;;16.60;11.20;;;7.90;99.90;;;;;;5077059;28;20454;-70
2021/12/30 04:17:00;;;;;;;17.10;11.13;;;7.90;99.90;;;;;;5076731;28;20770;-70
2021/12/30 04:19:27;;;;;;;18.33;11.23;;;7.90;99.90;;;;;;5075608;28;20465;-70
2021/12/30 04:21:57;;;;;;;17.70;10.73;;;7.90;99.90;;;;;;5076980;28;20520;-70
2021/12/30 04:24:24;;;;;;;17.30;11.63;;;7.90;99.90;;;;;;5076243;28;20474;-70
2021/12/30 04:26:51;;;;;;;21.73;12.60;;;7.90;99.90;;;;;;5076379;28;20559;-70
2021/12/30 04:29:18;;;;;;;24.13;12.40;;;7.90;99.90;;;;;;5076598;28;20473;-70
2021/12/30 04:31:45;;;;;;;33.63;15.17;;;7.90;99.90;;;;;;5076381;28;20545;-70
2021/12/30 04:34:12;;;;;;;24.90;13.47;;;8.00;99.90;;;;;;5076548;28;20481;-70
2021/12/30 04:36:41;;;;;;;28.23;14.07;;;8.00;99.90;;;;;;5076419;28;20511;-70
2021/12/30 04:39:10;;;;;;;30.77;14.70;;;8.00;99.90;;;;;;5076125;28;20929;-70
2021/12/30 04:41:37;;;;;;;30.90;14.70;;;8.10;99.90;;;;;;5077035;28;20454;-70
2021/12/30 04:44:04;;;;;;;35.17;16.03;;;8.10;99.90;;;;;;5076410;28;20891;-70
2021/12/30 04:46:33;;;;;;;31.90;14.67;;;8.10;99.90;;;;;;5077037;28;20501;-70
2021/12/30 04:48:59;;;;;;;39.40;16.50;;;8.10;99.90;;;;;;5076162;28;20462;-70
2021/12/30 04:51:26;;;;;;;33.17;16.13;;;8.10;99.90;;;;;;5075758;28;20454;-70
2021/12/30 04:53:53;;;;;;;32.47;16.40;;;8.10;99.90;;;;;;5075918;28;20458;-69
2021/12/30 04:56:21;;;;;;;36.50;16.50;;;8.20;99.90;;;;;;5077036;28;20461;-70
2021/12/30 04:58:49;;;;;;;42.10;17.97;;;8.20;99.90;;;;;;5075733;28;20462;-69
2021/12/30 05:01:16;;;;;;;39.87;17.70;;;8.20;99.90;;;;;;5075699;28;20458;-70
2021/12/30 05:03:43;;;;;;;38.10;16.57;;;8.20;99.90;;;;;;5075958;28;20831;-70
2021/12/30 05:06:09;;;;;;;35.50;17.40;;;8.20;99.90;;;;;;5075492;28;20485;-70
2021/12/30 05:08:36;;;;;;;33.83;17.60;;;8.20;99.90;;;;;;5075414;28;20461;-70
2021/12/30 05:11:04;;;;;;;37.03;18.20;;;8.30;99.90;;;;;;5075450;28;20458;-69
2021/12/30 05:13:33;;;;;;;36.07;16.90;;;8.30;99.90;;;;;;5075605;28;20454;-70
2021/12/30 05:15:59;;;;;;;44.03;19.20;;;8.40;99.90;;;;;;5075505;28;20516;-70
2021/12/30 05:18:31;;;;;;;36.50;16.10;;;8.40;99.90;;;;;;5075571;28;20791;-69
2021/12/30 05:20:59;;;;;;;37.43;18.57;;;8.40;99.90;;;;;;5075537;28;20448;-70
2021/12/30 05:23:25;;;;;;;44.57;18.87;;;8.50;99.90;;;;;;5075917;28;20537;-69
2021/12/30 05:25:52;;;;;;;45.40;18.97;;;8.50;99.90;;;;;;5075338;28;20474;-69
2021/12/30 05:28:19;;;;;;;39.80;18.73;;;8.50;99.90;;;;;;5075855;28;20443;-69
2021/12/30 05:30:47;;;;;;;50.47;18.93;;;8.50;99.90;;;;;;5075082;28;20458;-69
2021/12/30 05:33:14;;;;;;;48.60;19.57;;;8.60;99.90;;;;;;5075322;28;20473;-69
2021/12/30 05:35:41;;;;;;;40.07;18.53;;;8.60;99.90;;;;;;5075542;28;20467;-69
2021/12/30 05:38:08;;;;;;;47.63;19.57;;;8.70;99.90;;;;;;5075100;28;20511;-69
2021/12/30 05:40:35;;;;;;;42.53;19.00;;;8.70;99.90;;;;;;5074907;28;20488;-69
2021/12/30 05:43:03;;;;;;;40.10;19.47;;;8.70;99.90;;;;;;5075023;28;20462;-70
2021/12/30 05:45:30;;;;;;;44.67;19.27;;;8.80;99.90;;;;;;5074897;28;20845;-70
2021/12/30 05:47:58;;;;;;;43.80;19.50;;;8.80;99.90;;;;;;5074754;28;20469;-69
2021/12/30 05:50:26;;;;;;;43.87;20.00;;;8.80;99.90;;;;;;5075023;28;20454;-70
2021/12/30 05:52:53;;;;;;;38.87;18.97;;;8.80;99.90;;;;;;5074835;28;20515;-70
2021/12/30 05:55:20;;;;;;;36.60;18.83;;;8.90;99.90;;;;;;5075126;28;20454;-70
2021/12/30 05:57:49;;;;;;;32.43;16.50;;;8.90;99.90;;;;;;5075019;28;20462;-69
2021/12/30 06:00:19;;;;;;;46.73;18.80;;;8.90;99.90;;;;;;5074486;28;20926;-70
2021/12/30 06:02:45;;;;;;;34.33;18.40;;;8.90;99.90;;;;;;5074546;28;20949;-69
2021/12/30 06:05:14;;;;;;;39.20;17.77;;;9.00;99.90;;;;;;5074798;28;20478;-69
2021/12/30 06:07:41;;;;;;;42.63;19.37;;;9.00;99.90;;;;;;5074622;28;20454;-69
2021/12/30 06:10:13;;;;;;;35.97;18.77;;;9.00;99.90;;;;;;5074837;28;20980;-70
2021/12/30 06:12:42;;;;;;;36.80;16.50;;;9.10;99.90;;;;;;5074704;28;20454;-70
2021/12/30 06:15:11;;;;;;;32.00;17.37;;;9.10;99.90;;;;;;5074792;28;20492;-70
2021/12/30 06:17:38;;;;;;;40.57;17.23;;;9.10;99.90;;;;;;5074744;28;20462;-70
2021/12/30 06:20:06;;;;;;;26.47;16.63;;;9.10;99.90;;;;;;5074657;28;20458;-69
2021/12/30 06:22:34;;;;;;;34.17;16.47;;;9.10;99.90;;;;;;5074328;28;20454;-69
2021/12/30 06:25:01;;;;;;;38.33;17.17;;;9.10;99.90;;;;;;5074541;28;20505;-69
2021/12/30 06:27:27;;;;;;;38.00;17.03;;;9.20;99.90;;;;;;5074716;28;20482;-69
2021/12/30 06:29:54;;;;;;;27.30;15.33;;;9.20;99.90;;;;;;5074829;28;20523;-69
2021/12/30 06:32:21;;;;;;;37.23;16.20;;;9.20;99.90;;;;;;5074255;28;20461;-70
2021/12/30 06:34:47;;;;;;;38.23;14.63;;;9.20;99.90;;;;;;5074516;28;20485;-70
2021/12/30 06:37:14;;;;;;;30.53;14.60;;;9.20;99.90;;;;;;5073763;28;20462;-70
2021/12/30 06:39:42;;;;;;;31.03;15.47;;;9.20;99.90;;;;;;5074394;28;20784;-70
2021/12/30 06:42:09;;;;;;;30.30;15.20;;;9.20;99.90;;;;;;5074594;28;20454;-70
2021/12/30 06:44:36;;;;;;;29.50;14.53;;;9.20;99.90;;;;;;5078388;28;20454;-69
2021/12/30 06:47:05;;;;;;;28.53;15.30;;;9.20;99.90;;;;;;5078112;28;20958;-70
2021/12/30 06:49:36;;;;;;;29.93;14.77;;;9.10;99.90;;;;;;5078884;28;20465;-70
2021/12/30 06:52:04;;;;;;;34.73;15.60;;;9.20;99.90;;;;;;5079184;28;20438;-70
2021/12/30 06:54:31;;;;;;;29.37;14.67;;;9.20;99.90;;;;;;5078953;28;20763;-70
2021/12/30 06:57:00;;;;;;;33.30;16.13;;;9.10;99.90;;;;;;5077854;28;20450;-70
2021/12/30 06:59:31;;;;;;;26.93;14.67;;;9.20;99.90;;;;;;5077802;28;20465;-70
2021/12/30 07:01:58;;;;;;;34.03;13.80;;;9.10;99.90;;;;;;5077577;28;20461;-70
2021/12/30 07:04:25;;;;;;;29.03;13.00;;;9.20;99.90;;;;;;5077915;28;20461;-70
2021/12/30 07:06:53;;;;;;;30.03;14.30;;;9.10;99.90;;;;;;5077902;28;20565;-70
2021/12/30 07:09:19;;;;;;;30.63;15.57;;;9.10;99.90;;;;;;5077895;28;20504;-70
2021/12/30 07:11:48;;;;;;;28.57;14.53;;;9.10;99.90;;;;;;5077816;28;20458;-70
2021/12/30 07:14:17;;;;;;;30.37;12.03;;;9.10;99.90;;;;;;5078180;28;20490;-70
2021/12/30 07:16:43;;;;;;;28.40;13.63;;;9.10;99.90;;;;;;5078043;28;20458;-71
2021/12/30 07:19:10;;;;;;;27.17;14.43;;;9.00;99.90;;;;;;5077945;28;20515;-69
2021/12/30 07:21:37;;;;;;;27.63;13.80;;;9.10;99.90;;;;;;5077864;28;20464;-70
2021/12/30 07:24:04;;;;;;;28.67;15.60;;;9.00;99.90;;;;;;5077879;28;20488;-70
2021/12/30 07:26:31;;;;;;;26.20;15.60;;;9.00;99.90;;;;;;5077545;28;20603;-70
2021/12/30 07:28:58;;;;;;;22.27;13.20;;;9.00;99.90;;;;;;5077479;28;20918;-70
2021/12/30 07:31:28;;;;;;;30.20;14.37;;;9.00;99.90;;;;;;5077729;28;20817;-71
2021/12/30 07:33:55;;;;;;;21.60;13.20;;;9.00;99.90;;;;;;5077612;28;20533;-70
2021/12/30 07:36:21;;;;;;;24.17;13.43;;;9.00;99.90;;;;;;5078815;28;20450;-70
2021/12/30 07:38:49;;;;;;;23.93;13.70;;;9.10;99.90;;;;;;5079772;28;20470;-70
2021/12/30 07:41:15;;;;;;;24.83;13.60;;;9.10;99.90;;;;;;5079111;28;20462;-70
2021/12/30 07:43:42;;;;;;;31.03;13.70;;;9.10;99.90;;;;;;5078586;28;20539;-70
2021/12/30 07:46:09;;;;;;;27.00;13.73;;;9.10;99.90;;;;;;5077069;28;20942;-71
2021/12/30 07:48:40;;;;;;;26.63;12.73;;;9.10;99.90;;;;;;5077347;28;20524;-70
2021/12/30 07:51:06;;;;;;;23.37;12.97;;;9.10;99.90;;;;;;5076657;28;20876;-70
2021/12/30 07:53:33;;;;;;;24.37;12.47;;;9.20;99.90;;;;;;5076849;28;20535;-70
2021/12/30 07:56:01;;;;;;;23.93;13.03;;;9.10;99.90;;;;;;5076961;28;20830;-69
2021/12/30 07:58:28;;;;;;;28.57;14.60;;;9.10;99.90;;;;;;5077125;28;20458;-70
2021/12/30 08:00:55;;;;;;;30.03;13.87;;;9.10;99.90;;;;;;5076918;28;20852;-70
2021/12/30 08:03:21;;;;;;;20.80;12.00;;;9.10;99.90;;;;;;5076821;28;20467;-70
2021/12/30 08:05:49;;;;;;;30.33;12.90;;;9.20;99.90;;;;;;5076702;28;20501;-69
2021/12/30 08:08:16;;;;;;;27.17;12.97;;;9.20;99.90;;;;;;5077321;28;20460;-70
2021/12/30 08:10:43;;;;;;;26.83;13.93;;;9.20;99.90;;;;;;5076620;28;20544;-70
2021/12/30 08:13:10;;;;;;;24.30;12.70;;;9.20;99.90;;;;;;5076795;28;20454;-70
2021/12/30 08:15:36;;;;;;;25.50;12.57;;;9.20;99.90;;;;;;5076543;28;20462;-70
2021/12/30 08:18:04;;;;;;;33.37;15.03;;;9.20;99.90;;;;;;5077310;28;20454;-71
2021/12/30 08:20:31;;;;;;;27.97;12.57;;;9.30;99.90;;;;;;5076563;28;20458;-71
2021/12/30 08:22:59;;;;;;;28.07;14.03;;;9.30;99.90;;;;;;5076673;28;20587;-69
2021/12/30 08:25:25;;;;;;;25.43;13.20;;;9.30;99.90;;;;;;5076339;28;20485;-69
2021/12/30 08:27:52;;;;;;;24.30;12.77;;;9.40;99.90;;;;;;5075988;28;20551;-70
2021/12/30 08:30:20;;;;;;;21.83;12.20;;;9.50;99.90;;;;;;5076647;28;20515;-70
2021/12/30 08:32:50;;;;;;;24.83;10.97;;;9.50;99.90;;;;;;5076544;28;20829;-70
2021/12/30 08:35:21;;;;;;;29.67;11.60;;;9.50;99.90;;;;;;5076421;28;20454;-70
2021/12/30 08:37:48;;;;;;;20.80;11.40;;;9.50;99.90;;;;;;5076415;28;20942;-69
2021/12/30 08:40:17;;;;;;;25.90;11.90;;;9.60;99.90;;;;;;5076196;28;20984;-69
2021/12/30 08:42:44;;;;;;;40.73;12.07;;;9.60;99.90;;;;;;5076117;28;20469;-69
2021/12/30 08:45:14;;;;;;;23.73;11.80;;;9.60;99.90;;;;;;5076072;28;20465;-69
2021/12/30 08:47:41;;;;;;;21.67;11.30;;;9.70;99.90;;;;;;5075892;28;20478;-70
2021/12/30 08:50:13;;;;;;;33.43;11.33;;;9.70;99.90;;;;;;5075983;28;20554;-68
2021/12/30 08:52:40;;;;;;;25.13;12.27;;;9.70;99.90;;;;;;5076354;28;20438;-69
2021/12/30 08:55:08;;;;;;;23.30;11.47;;;9.70;99.90;;;;;;5075763;28;20519;-70
2021/12/30 08:57:40;;;;;;;28.93;12.43;;;9.70;99.90;;;;;;5076059;28;20458;-70
2021/12/30 09:00:11;;;;;;;23.70;11.30;;;9.70;99.90;;;;;;5075811;28;20447;-70
2021/12/30 09:02:38;;;;;;;24.60;12.07;;;9.80;99.90;;;;;;5076151;28;20456;-70
2021/12/30 09:05:09;;;;;;;25.83;11.50;;;9.80;99.90;;;;;;5076355;28;20469;-69
2021/12/30 09:07:36;;;;;;;27.23;11.77;;;9.90;99.90;;;;;;5079178;28;20970;-70
2021/12/30 09:10:04;;;;;;;19.77;11.00;;;9.90;99.90;;;;;;5076182;28;20549;-69
2021/12/30 09:12:30;;;;;;;28.37;11.97;;;9.90;99.90;;;;;;5076436;28;20480;-68
2021/12/30 09:14:58;;;;;;;20.07;12.17;;;9.90;99.90;;;;;;5076851;28;20454;-69
2021/12/30 09:17:25;;;;;;;23.37;11.20;;;9.90;99.90;;;;;;5076872;28;20458;-69
2021/12/30 09:19:52;;;;;;;30.43;12.60;;;10.00;99.90;;;;;;5076188;28;20481;-69
2021/12/30 09:22:19;;;;;;;17.37;10.87;;;9.90;99.90;;;;;;5075819;28;20458;-69
2021/12/30 09:24:45;;;;;;;17.13;10.47;;;10.00;99.90;;;;;;5076936;28;20474;-68
2021/12/30 09:27:12;;;;;;;18.83;11.03;;;10.00;99.90;;;;;;5075608;28;20589;-69
2021/12/30 09:29:39;;;;;;;23.23;12.10;;;10.10;99.90;;;;;;5075828;28;20910;-69
2021/12/30 09:32:07;;;;;;;20.90;10.77;;;10.10;99.90;;;;;;5075914;28;20775;-71
2021/12/30 09:34:36;;;;;;;28.40;11.80;;;10.10;99.90;;;;;;5075950;28;20462;-69
2021/12/30 09:37:08;;;;;;;23.23;11.33;;;10.20;99.90;;;;;;5075521;28;20457;-70
2021/12/30 09:39:36;;;;;;;19.43;10.77;;;10.20;99.90;;;;;;5075048;28;20442;-69
2021/12/30 09:42:03;;;;;;;21.27;11.37;;;10.20;99.90;;;;;;5075672;28;20455;-70
2021/12/30 09:44:31;;;;;;;22.23;10.27;;;10.20;99.90;;;;;;5075231;28;20488;-69
2021/12/30 09:47:00;;;;;;;18.90;10.23;;;10.20;99.90;;;;;;5075497;28;20482;-69
2021/12/30 09:49:30;;;;;;;19.60;10.57;;;10.20;99.90;;;;;;5075410;28;20473;-70
2021/12/30 09:51:57;;;;;;;25.63;11.27;;;10.20;99.90;;;;;;5076314;28;20443;-71
2021/12/30 09:54:24;;;;;;;20.77;11.60;;;10.20;99.90;;;;;;5075593;28;20462;-70
2021/12/30 09:56:51;;;;;;;19.77;10.90;;;10.20;99.90;;;;;;5075525;28;20976;-72
2021/12/30 09:59:18;;;;;;;20.33;10.17;;;10.20;99.90;;;;;;5076472;28;20914;-70
2021/12/30 10:01:45;;;;;;;25.17;11.30;;;10.10;99.90;;;;;;5077211;28;20829;-72
2021/12/30 10:04:13;;;;;;;24.37;10.27;;;10.20;99.90;;;;;;5076001;28;20491;-69
2021/12/30 10:06:46;;;;;;;22.23;11.47;;;10.10;99.90;;;;;;5075117;28;20482;-69
2021/12/30 10:09:15;;;;;;;31.40;11.00;;;10.20;99.90;;;;;;5075494;28;20465;-71
2021/12/30 10:11:47;;;;;;;19.07;11.30;;;10.20;99.90;;;;;;5074704;28;20462;-71
2021/12/30 10:14:26;;;;;;;18.00;11.27;;;10.10;99.90;;;;;;5074754;28;20462;-72
2021/12/30 10:17:13;;;;;;;22.90;11.87;;;10.00;99.90;;;;;;5074734;28;20767;-71
2021/12/30 10:19:40;;;;;;;23.70;13.20;;;10.00;99.90;;;;;;5074437;28;20824;-70
2021/12/30 10:22:11;;;;;;;24.53;11.10;;;10.00;99.90;;;;;;5074642;28;20477;-70
2021/12/30 10:24:37;;;;;;;20.00;11.37;;;9.90;99.90;;;;;;5074575;28;20798;-71
2021/12/30 10:27:04;;;;;;;20.07;11.20;;;10.00;99.90;;;;;;5074798;28;20551;-69
2021/12/30 10:29:40;;;;;;;21.23;11.50;;;10.00;99.90;;;;;;5074712;28;20572;-69
2021/12/30 10:32:14;;;;;;;23.90;11.63;;;10.00;99.90;;;;;;5074134;28;20513;-69
2021/12/30 10:35:02;;;;;;;22.40;12.27;;;10.10;99.90;;;;;;5074695;28;20477;-69
2021/12/30 10:37:30;;;;;;;29.47;13.93;;;10.10;99.90;;;;;;5074903;28;20458;-70
2021/12/30 10:39:57;;;;;;;19.93;12.27;;;10.10;99.90;;;;;;5074406;28;20461;-70
2021/12/30 10:42:25;;;;;;;24.80;11.37;;;10.10;99.90;;;;;;5074271;28;20447;-70
2021/12/30 10:44:54;;;;;;;25.13;11.70;;;10.00;99.90;;;;;;5075499;28;20450;-74
2021/12/30 10:47:26;;;;;;;23.33;12.00;;;10.10;99.90;;;;;;5075833;28;20843;-71
2021/12/30 10:49:58;;;;;;;17.50;10.43;;;10.10;99.90;;;;;;5075878;28;20442;-69
2021/12/30 10:52:25;;;;;;;20.47;11.03;;;10.10;99.90;;;;;;5074696;28;20504;-70
2021/12/30 10:54:54;;;;;;;24.77;13.00;;;10.10;99.90;;;;;;5074687;28;20829;-70
2021/12/30 10:57:21;;;;;;;23.27;11.90;;;10.00;99.90;;;;;;5074435;28;20454;-70
2021/12/30 10:59:49;;;;;;;23.27;10.60;;;10.00;99.90;;;;;;5074397;28;20464;-69
2021/12/30 11:02:18;;;;;;;24.10;10.37;;;10.00;99.90;;;;;;5075405;28;20623;-70
2021/12/30 11:04:48;;;;;;;22.73;10.97;;;10.10;99.90;;;;;;5075163;28;20542;-69
2021/12/30 11:07:19;;;;;;;21.60;10.80;;;10.10;99.90;;;;;;5074460;28;20474;-70
2021/12/30 11:09:48;;;;;;;22.03;10.70;;;10.20;99.90;;;;;;5074613;28;20446;-69
2021/12/30 11:12:22;;;;;;;27.93;11.17;;;10.20;99.90;;;;;;5074144;28;20458;-69
2021/12/30 11:14:49;;;;;;;18.77;9.47;;;10.30;99.90;;;;;;5073956;28;20438;-69
2021/12/30 11:17:18;;;;;;;20.93;11.27;;;10.30;99.90;;;;;;5074127;28;20512;-69
2021/12/30 11:19:51;;;;;;;18.83;10.90;;;10.30;99.90;;;;;;5073935;28;20464;-69
2021/12/30 11:22:21;;;;;;;19.47;10.80;;;10.30;99.90;;;;;;5074162;28;20446;-69
2021/12/30 11:24:50;;;;;;;23.17;11.33;;;10.30;99.90;;;;;;5073796;28;20466;-69
2021/12/30 11:27:22;;;;;;;23.93;10.80;;;10.30;99.90;;;;;;5073554;28;20490;-69
2021/12/30 11:29:52;;;;;;;19.23;9.90;;;10.30;99.90;;;;;;5076220;28;20450;-69
2021/12/30 11:32:22;;;;;;;26.50;10.77;;;10.20;99.90;;;;;;5077420;28;20458;-69
2021/12/30 11:34:50;;;;;;;29.13;12.10;;;10.20;99.90;;;;;;5077388;28;20819;-69
2021/12/30 11:37:18;;;;;;;22.83;10.40;;;10.20;99.90;;;;;;5077343;28;20461;-69
2021/12/30 11:39:46;;;;;;;20.03;10.80;;;10.20;99.90;;;;;;5077477;28;20457;-69
2021/12/30 11:42:20;;;;;;;22.83;10.13;;;10.20;99.90;;;;;;5077334;28;20465;-69
2021/12/30 11:44:48;;;;;;;20.97;10.97;;;10.30;99.90;;;;;;5077194;28;20443;-69
2021/12/30 11:47:39;;;;;;;22.80;10.50;;;10.30;99.90;;;;;;5077285;28;20489;-70
2021/12/30 11:50:12;;;;;;;15.53;9.53;;;10.20;99.90;;;;;;5077611;28;20833;-69
2021/12/30 11:52:54;;;;;;;14.67;9.73;;;10.30;99.90;;;;;;5077681;28;20905;-69
2021/12/30 11:55:41;;;;;;;17.43;9.70;;;10.30;99.90;;;;;;5076970;28;20445;-70
2021/12/30 11:58:36;;;;;;;16.23;9.17;;;10.30;99.90;;;;;;5077118;28;20450;-69
2021/12/30 12:01:04;;;;;;;19.13;9.10;;;10.40;99.90;;;;;;5077051;28;20439;-69
2021/12/30 12:03:34;;;;;;;20.70;9.57;;;10.40;99.90;;;;;;5076613;28;20519;-69
2021/12/30 12:06:01;;;;;;;19.73;9.70;;;10.40;99.90;;;;;;5076812;28;20466;-70
2021/12/30 12:08:30;;;;;;;28.07;10.30;;;10.40;99.90;;;;;;5077039;28;20482;-69
2021/12/30 12:11:13;;;;;;;29.53;11.97;;;10.40;99.90;;;;;;5076998;28;20828;-70
2021/12/30 12:13:43;;;;;;;16.30;10.23;;;10.30;99.90;;;;;;5078550;28;20443;-70
2021/12/30 12:16:11;;;;;;;11.93;8.60;;;10.40;99.90;;;;;;5078433;28;20476;-70
2021/12/30 12:18:43;;;;;;;16.07;9.57;;;10.40;99.90;;;;;;5078644;28;20469;-70
2021/12/30 12:21:10;;;;;;;16.00;9.60;;;10.40;99.90;;;;;;5079347;28;20800;-70
2021/12/30 12:23:39;;;;;;;15.40;8.97;;;10.30;99.90;;;;;;5078718;28;20970;-69
2021/12/30 12:26:11;;;;;;;21.60;10.80;;;10.20;99.90;;;;;;5078802;28;20470;-69
2021/12/30 12:28:38;;;;;;;20.40;9.20;;;10.20;99.90;;;;;;5078725;28;20840;-69
2021/12/30 12:31:08;;;;;;;17.83;10.50;;;10.20;99.90;;;;;;5078192;28;20919;-68
2021/12/30 12:33:38;;;;;;;18.97;10.97;;;10.10;99.90;;;;;;5076991;28;20499;-70
2021/12/30 12:36:12;;;;;;;21.17;11.20;;;10.10;99.90;;;;;;5076825;28;20462;-70
2021/12/30 12:38:41;;;;;;;20.50;10.80;;;10.00;99.90;;;;;;5077360;28;20454;-70
2021/12/30 12:41:23;;;;;;;23.00;11.43;;;10.10;99.90;;;;;;5075258;28;20454;-71